createdAt,value
2023-05-31T00:01:02.168Z,102505.22
2023-05-31T00:03:28.828Z,102513.16
2023-05-31T00:05:55.350Z,102497.84
2023-05-31T00:08:21.843Z,102517.03
2023-05-31T00:10:48.360Z,102512.03
2023-05-31T00:13:15.043Z,102513.94
2023-05-31T00:15:41.805Z,102509.44
2023-05-31T00:18:08.291Z,102510.50
2023-05-31T00:20:34.770Z,102489.28
2023-05-31T00:23:01.396Z,102508.97
2023-05-31T00:25:27.842Z,102506.63
2023-05-31T00:27:56.136Z,102511.09
2023-05-31T00:30:22.550Z,102510.63
2023-05-31T00:32:49.154Z,102513.09
2023-05-31T00:35:15.732Z,102505.28
2023-05-31T00:37:42.176Z,102502.72
2023-05-31T00:40:09.252Z,102501.09
2023-05-31T00:42:35.990Z,102501.38
2023-05-31T00:45:02.583Z,102482.53
2023-05-31T00:47:29.764Z,102510.34
2023-05-31T00:49:57.046Z,102468.34
2023-05-31T00:52:24.279Z,102507.09
2023-05-31T00:54:51.669Z,102506.41
2023-05-31T00:57:18.376Z,102496.16
2023-05-31T00:59:45.531Z,102502.91
2023-05-31T01:02:15.691Z,102506.59
2023-05-31T01:04:42.180Z,102502.22
2023-05-31T01:07:09.396Z,102495.56
2023-05-31T01:09:38.041Z,102497.97
2023-05-31T01:12:32.357Z,102499.88
2023-05-31T01:15:11.067Z,102505.47
2023-05-31T01:17:46.044Z,102502.44
2023-05-31T01:20:16.395Z,102509.34
2023-05-31T01:23:07.917Z,102501.56
2023-05-31T01:26:18.488Z,102514.13
2023-05-31T01:28:50.538Z,102506.59
2023-05-31T01:31:21.296Z,102505.72
2023-05-31T01:33:49.728Z,102513.91
2023-05-31T01:36:16.480Z,102510.50
2023-05-31T01:38:42.939Z,102508.19
2023-05-31T01:41:13.263Z,102472.19
2023-05-31T01:43:42.382Z,102510.28
2023-05-31T01:46:10.745Z,102504.75
2023-05-31T01:48:38.175Z,102505.78
2023-05-31T01:51:09.888Z,102501.50
2023-05-31T01:53:36.588Z,102495.81
2023-05-31T01:56:06.465Z,102503.53
2023-05-31T01:58:35.612Z,102470.94
2023-05-31T02:01:02.695Z,102508.00
2023-05-31T02:03:29.813Z,102506.28
2023-05-31T02:06:00.582Z,102498.47
2023-05-31T02:08:28.000Z,102506.63
2023-05-31T02:10:55.183Z,102504.72
2023-05-31T02:13:26.823Z,102503.28
2023-05-31T02:15:53.571Z,102514.78
2023-05-31T02:18:20.057Z,102500.81
2023-05-31T02:20:46.740Z,102513.28
2023-05-31T02:23:13.317Z,102496.72
2023-05-31T02:25:39.757Z,102499.38
2023-05-31T02:28:06.282Z,102504.88
2023-05-31T02:30:34.132Z,102497.84
2023-05-31T02:33:03.354Z,102491.00
2023-05-31T02:35:29.882Z,102504.19
2023-05-31T02:37:56.509Z,102504.41
2023-05-31T02:40:23.139Z,102502.84
2023-05-31T02:42:49.615Z,102509.22
2023-05-31T02:45:16.335Z,102504.06
2023-05-31T02:47:42.982Z,102492.06
2023-05-31T02:50:11.274Z,102494.03
2023-05-31T02:52:38.499Z,102490.44
2023-05-31T02:55:06.472Z,102494.13
2023-05-31T02:57:32.986Z,102485.75
2023-05-31T03:00:09.837Z,102492.59
2023-05-31T03:02:36.417Z,102497.13
2023-05-31T03:05:05.237Z,102496.28
2023-05-31T03:07:31.768Z,102501.72
2023-05-31T03:09:58.307Z,102497.34
2023-05-31T03:12:24.800Z,102492.09
2023-05-31T03:14:51.324Z,102490.28
2023-05-31T03:17:17.817Z,102457.69
2023-05-31T03:19:44.306Z,102493.91
2023-05-31T03:22:10.770Z,102493.97
2023-05-31T03:24:37.253Z,102486.94
2023-05-31T03:27:04.101Z,102492.34
2023-05-31T03:29:30.985Z,102467.22
2023-05-31T03:31:57.501Z,102491.41
2023-05-31T03:34:24.120Z,102488.84
2023-05-31T03:36:51.912Z,102475.63
2023-05-31T03:39:18.349Z,102482.56
2023-05-31T03:41:44.787Z,102480.75
2023-05-31T03:44:11.389Z,102482.56
2023-05-31T03:46:37.819Z,102480.16
2023-05-31T03:49:06.573Z,102491.31
2023-05-31T03:51:33.115Z,102486.09
2023-05-31T03:53:59.613Z,102449.09
2023-05-31T03:56:26.358Z,102487.47
2023-05-31T03:58:52.873Z,102480.22
2023-05-31T04:01:19.318Z,102491.47
2023-05-31T04:03:46.359Z,102460.34
2023-05-31T04:06:13.023Z,102480.81
2023-05-31T04:08:39.486Z,102485.59
2023-05-31T04:11:05.993Z,102484.66
2023-05-31T04:13:32.412Z,102487.91
2023-05-31T04:15:59.584Z,102474.88
2023-05-31T04:18:26.110Z,102477.34
2023-05-31T04:20:52.881Z,102489.66
2023-05-31T04:23:19.423Z,102449.88
2023-05-31T04:25:46.172Z,102490.75
2023-05-31T04:28:13.836Z,102485.91
2023-05-31T04:30:40.526Z,102464.03
2023-05-31T04:33:07.324Z,102493.94
2023-05-31T04:35:34.863Z,102488.97
2023-05-31T04:38:03.612Z,102486.72
2023-05-31T04:40:32.988Z,102441.78
2023-05-31T04:43:01.770Z,102486.72
2023-05-31T04:45:28.466Z,102485.94
2023-05-31T04:47:56.263Z,102506.72
2023-05-31T04:50:22.846Z,102494.53
2023-05-31T04:52:49.330Z,102488.59
2023-05-31T04:55:15.879Z,102490.59
2023-05-31T04:57:42.361Z,102497.91
2023-05-31T05:00:11.123Z,102492.75
2023-05-31T05:02:37.724Z,102487.56
2023-05-31T05:05:08.190Z,102488.69
2023-05-31T05:07:34.638Z,102488.81
2023-05-31T05:10:01.733Z,102488.09
2023-05-31T05:12:28.176Z,102491.88
2023-05-31T05:14:54.582Z,102492.97
2023-05-31T05:17:21.639Z,102479.31
2023-05-31T05:19:48.115Z,102495.78
2023-05-31T05:22:14.725Z,102499.44
2023-05-31T05:24:41.248Z,102498.69
2023-05-31T05:27:07.908Z,102493.66
2023-05-31T05:29:34.481Z,102475.69
2023-05-31T05:32:01.109Z,102497.19
2023-05-31T05:34:27.828Z,102422.03
2023-05-31T05:36:54.684Z,102485.31
2023-05-31T05:39:21.704Z,102497.47
2023-05-31T05:41:48.129Z,102501.19
2023-05-31T05:44:14.623Z,102500.28
2023-05-31T05:46:41.170Z,102497.56
2023-05-31T05:49:07.625Z,102487.16
2023-05-31T05:51:35.241Z,102470.72
2023-05-31T05:54:01.705Z,102476.03
2023-05-31T05:56:28.239Z,102485.75
2023-05-31T05:58:54.689Z,102488.22
2023-05-31T06:01:21.478Z,102488.78
2023-05-31T06:03:51.609Z,102491.00
2023-05-31T06:06:18.250Z,102482.59
2023-05-31T06:08:46.141Z,102478.94
2023-05-31T06:11:13.034Z,102439.09
2023-05-31T06:13:39.573Z,102478.66
2023-05-31T06:16:06.490Z,102490.47
2023-05-31T06:18:32.998Z,102481.75
2023-05-31T06:21:00.049Z,102473.00
2023-05-31T06:23:26.956Z,102461.50
2023-05-31T06:25:53.647Z,102464.06
2023-05-31T06:28:20.282Z,102470.59
2023-05-31T06:30:47.114Z,102447.56
2023-05-31T06:33:13.925Z,102454.09
2023-05-31T06:35:43.731Z,102451.78
2023-05-31T06:38:15.956Z,102445.72
2023-05-31T06:40:44.150Z,102460.22
2023-05-31T06:43:13.777Z,102428.91
2023-05-31T06:45:42.995Z,102458.00
2023-05-31T06:48:10.432Z,102458.81
2023-05-31T06:50:37.356Z,102451.28
2023-05-31T06:53:04.064Z,102454.50
2023-05-31T06:55:30.743Z,102453.44
2023-05-31T06:57:57.326Z,102442.28
2023-05-31T07:00:23.792Z,102445.44
2023-05-31T07:02:50.719Z,102441.28
2023-05-31T07:05:17.184Z,102445.25
2023-05-31T07:07:43.632Z,102451.84
2023-05-31T07:10:10.453Z,102440.47
2023-05-31T07:12:36.932Z,102424.59
2023-05-31T07:15:03.607Z,102451.88
2023-05-31T07:17:30.666Z,102448.59
2023-05-31T07:19:57.656Z,102448.78
2023-05-31T07:22:24.178Z,102434.91
2023-05-31T07:24:50.939Z,102452.47
2023-05-31T07:27:17.541Z,102430.78
2023-05-31T07:29:44.018Z,102454.75
2023-05-31T07:32:10.590Z,102444.94
2023-05-31T07:34:37.202Z,102441.59
2023-05-31T07:37:03.705Z,102445.34
2023-05-31T07:39:30.571Z,102432.84
2023-05-31T07:41:59.551Z,102443.50
2023-05-31T07:44:26.319Z,102435.41
2023-05-31T07:46:52.831Z,102433.69
2023-05-31T07:49:19.417Z,102422.00
2023-05-31T07:51:46.141Z,102439.97
2023-05-31T07:54:12.720Z,102417.56
2023-05-31T07:56:39.586Z,102435.88
2023-05-31T07:59:07.737Z,102430.63
2023-05-31T08:01:34.882Z,102425.00
2023-05-31T08:04:09.162Z,102430.09
2023-05-31T08:06:36.070Z,102418.56
2023-05-31T08:09:02.917Z,102432.28
2023-05-31T08:11:29.631Z,102433.25
2023-05-31T08:13:56.110Z,102424.94
2023-05-31T08:16:22.905Z,102434.06
2023-05-31T08:18:53.140Z,102429.81
2023-05-31T08:21:19.727Z,102424.00
2023-05-31T08:23:46.228Z,102427.53
2023-05-31T08:26:12.937Z,102425.66
2023-05-31T08:28:39.453Z,102416.34
2023-05-31T08:31:06.119Z,102416.50
2023-05-31T08:33:33.460Z,102422.03
2023-05-31T08:36:00.953Z,102421.16
2023-05-31T08:38:28.833Z,102393.72
2023-05-31T08:41:02.066Z,102425.22
2023-05-31T08:43:29.925Z,102412.59
2023-05-31T08:45:56.861Z,102415.25
2023-05-31T08:48:36.509Z,102415.22
2023-05-31T08:51:06.302Z,102416.00
2023-05-31T08:53:34.650Z,102399.66
2023-05-31T08:56:05.646Z,102417.81
2023-05-31T08:58:32.287Z,102408.72
2023-05-31T09:00:59.870Z,102415.50
2023-05-31T09:03:27.686Z,102413.28
2023-05-31T09:05:56.516Z,102419.78
2023-05-31T09:08:23.635Z,102401.28
2023-05-31T09:10:51.081Z,102392.41
2023-05-31T09:13:17.649Z,102409.66
2023-05-31T09:15:48.564Z,102396.13
2023-05-31T09:18:26.400Z,102399.81
2023-05-31T09:20:54.600Z,102382.31
2023-05-31T09:23:21.239Z,102394.00
2023-05-31T09:25:48.597Z,102385.38
2023-05-31T09:28:17.932Z,102389.75
2023-05-31T09:30:44.734Z,102377.69
2023-05-31T09:33:11.963Z,102369.47
2023-05-31T09:35:38.556Z,102379.81
2023-05-31T09:38:07.482Z,102335.28
2023-05-31T09:40:34.786Z,102346.91
2023-05-31T09:43:01.809Z,102372.72
2023-05-31T09:45:29.622Z,102360.41
2023-05-31T09:47:56.564Z,102368.91
2023-05-31T09:50:24.341Z,102373.78
2023-05-31T09:52:57.093Z,102357.63
2023-05-31T09:55:23.801Z,102363.34
2023-05-31T09:57:53.299Z,102367.16
2023-05-31T10:00:20.397Z,102367.97
2023-05-31T10:02:48.784Z,102367.16
2023-05-31T10:05:16.739Z,102354.06
2023-05-31T10:07:45.046Z,102359.91
2023-05-31T10:10:12.349Z,102352.31
2023-05-31T10:13:00.615Z,102366.34
2023-05-31T10:15:32.980Z,102356.63
2023-05-31T10:18:03.713Z,102357.28
2023-05-31T10:20:53.081Z,102352.44
2023-05-31T10:23:23.501Z,102361.72
2023-05-31T10:26:22.723Z,102350.72
2023-05-31T10:29:14.543Z,102348.75
2023-05-31T10:31:51.212Z,102352.16
2023-05-31T10:34:26.785Z,102334.28
2023-05-31T10:36:55.372Z,102342.91
2023-05-31T10:39:39.481Z,102350.94
2023-05-31T10:42:44.215Z,102337.81
2023-05-31T10:45:23.652Z,102341.91
2023-05-31T10:48:04.185Z,102342.50
2023-05-31T10:50:30.851Z,102336.44
2023-05-31T10:53:12.158Z,102325.47
2023-05-31T10:55:44.086Z,102322.31
2023-05-31T10:58:28.125Z,102331.34
2023-05-31T11:00:56.559Z,102327.31
2023-05-31T11:03:27.273Z,102310.41
2023-05-31T11:05:57.165Z,102319.50
2023-05-31T11:08:24.256Z,102319.00
2023-05-31T11:10:51.285Z,102316.06
2023-05-31T11:13:18.076Z,102313.47
2023-05-31T11:15:46.683Z,102322.09
2023-05-31T11:18:24.765Z,102310.66
2023-05-31T11:20:51.835Z,102308.59
2023-05-31T11:23:18.460Z,102311.84
2023-05-31T11:25:45.744Z,102313.34
2023-05-31T11:28:18.462Z,102308.47
2023-05-31T11:30:47.316Z,102317.78
2023-05-31T11:33:16.863Z,102276.31
2023-05-31T11:35:43.595Z,102287.88
2023-05-31T11:38:10.250Z,102292.75
2023-05-31T11:40:37.180Z,102296.00
2023-05-31T11:43:08.372Z,102295.09
2023-05-31T11:45:40.524Z,102292.56
2023-05-31T11:48:26.196Z,102281.59
2023-05-31T11:50:55.345Z,102287.69
2023-05-31T11:53:22.451Z,102285.56
2023-05-31T11:55:49.871Z,102282.50
2023-05-31T11:58:20.305Z,102283.78
2023-05-31T12:00:47.611Z,102269.44
2023-05-31T12:03:18.723Z,102270.41
2023-05-31T12:05:51.506Z,102263.44
2023-05-31T12:08:18.329Z,102254.44
2023-05-31T12:10:46.644Z,102242.72
2023-05-31T12:13:16.637Z,102215.94
2023-05-31T12:15:43.400Z,102267.84
2023-05-31T12:18:10.005Z,102225.81
2023-05-31T12:20:36.496Z,102255.41
2023-05-31T12:23:13.561Z,102251.28
2023-05-31T12:25:48.119Z,102242.50
2023-05-31T12:28:17.595Z,102248.88
2023-05-31T12:30:48.014Z,102211.09
2023-05-31T12:33:15.182Z,102236.44
2023-05-31T12:35:46.345Z,102231.50
2023-05-31T12:38:13.560Z,102231.78
2023-05-31T12:40:42.720Z,102250.34
2023-05-31T12:43:10.173Z,102229.75
2023-05-31T12:45:41.923Z,102231.28
2023-05-31T12:48:10.515Z,102240.13
2023-05-31T12:50:37.428Z,102218.25
2023-05-31T12:53:07.521Z,102224.34
2023-05-31T12:55:34.063Z,102234.47
2023-05-31T12:58:04.039Z,102199.13
2023-05-31T13:00:33.220Z,102193.22
2023-05-31T13:02:59.942Z,102221.81
2023-05-31T13:05:26.910Z,102150.13
2023-05-31T13:07:54.927Z,102211.72
2023-05-31T13:10:21.617Z,102219.06
2023-05-31T13:12:48.075Z,102216.13
2023-05-31T13:15:14.639Z,102215.72
2023-05-31T13:17:41.150Z,102209.44
2023-05-31T13:20:12.598Z,102202.94
2023-05-31T13:22:40.085Z,102165.94
2023-05-31T13:25:08.017Z,102206.13
2023-05-31T13:27:34.707Z,102152.88
2023-05-31T13:30:01.343Z,102198.97
2023-05-31T13:32:29.090Z,102195.97
2023-05-31T13:34:57.558Z,102191.41
2023-05-31T13:37:25.877Z,102192.66
2023-05-31T13:39:52.669Z,102197.34
2023-05-31T13:42:19.455Z,102189.13
2023-05-31T13:44:46.026Z,102188.53
2023-05-31T13:47:12.494Z,102194.25
2023-05-31T13:49:39.545Z,102183.75
2023-05-31T13:52:08.831Z,102184.81
2023-05-31T13:54:35.643Z,102173.44
2023-05-31T13:57:02.524Z,102128.41
2023-05-31T13:59:29.191Z,102162.06
2023-05-31T14:01:55.792Z,102164.38
2023-05-31T14:04:24.187Z,102128.00
2023-05-31T14:06:51.406Z,102157.63
2023-05-31T14:09:18.492Z,102151.78
2023-05-31T14:11:45.153Z,102158.72
2023-05-31T14:14:11.718Z,102153.03
2023-05-31T14:16:38.260Z,102160.84
2023-05-31T14:19:05.217Z,102164.22
2023-05-31T14:21:33.400Z,102147.81
2023-05-31T14:24:00.242Z,102124.72
2023-05-31T14:26:28.207Z,102148.88
2023-05-31T14:28:54.634Z,102147.19
2023-05-31T14:31:21.445Z,102137.53
2023-05-31T14:33:47.978Z,102114.16
2023-05-31T14:36:14.972Z,102149.91
2023-05-31T14:38:42.072Z,102134.59
2023-05-31T14:41:08.562Z,102142.13
2023-05-31T14:43:34.991Z,102126.34
2023-05-31T14:46:01.509Z,102144.41
2023-05-31T14:48:28.079Z,102135.78
2023-05-31T14:50:54.515Z,102142.28
2023-05-31T14:53:21.148Z,102126.28
2023-05-31T14:55:47.634Z,102132.75
2023-05-31T14:58:14.318Z,102123.22
2023-05-31T15:00:40.797Z,102120.06
2023-05-31T15:03:07.396Z,102120.66
2023-05-31T15:05:33.994Z,102116.25
2023-05-31T15:08:00.666Z,102120.47
2023-05-31T15:10:27.595Z,102115.41
2023-05-31T15:12:54.533Z,102118.06
2023-05-31T15:15:21.229Z,102119.47
2023-05-31T15:17:47.886Z,102117.78
2023-05-31T15:20:14.412Z,102124.56
2023-05-31T15:22:41.051Z,102119.09
2023-05-31T15:25:07.970Z,102111.41
2023-05-31T15:27:34.772Z,102096.69
2023-05-31T15:30:01.416Z,102081.38
2023-05-31T15:32:28.073Z,102112.88
2023-05-31T15:34:54.579Z,102092.66
2023-05-31T15:37:21.056Z,102110.59
2023-05-31T15:39:47.664Z,102091.53
2023-05-31T15:42:14.126Z,102034.63
2023-05-31T15:44:40.738Z,102111.81
2023-05-31T15:47:07.902Z,102086.13
2023-05-31T15:49:37.121Z,102102.19
2023-05-31T15:52:03.761Z,102071.69
2023-05-31T15:54:30.296Z,102062.38
2023-05-31T15:56:56.817Z,102075.66
2023-05-31T15:59:23.326Z,102077.56
2023-05-31T16:01:49.896Z,102070.84
2023-05-31T16:04:16.525Z,102034.00
2023-05-31T16:06:43.075Z,102062.25
2023-05-31T16:09:09.843Z,102037.50
2023-05-31T16:11:36.686Z,102058.84
2023-05-31T16:14:03.304Z,102053.84
2023-05-31T16:16:29.875Z,102071.63
2023-05-31T16:18:56.539Z,102070.97
2023-05-31T16:21:23.065Z,102053.97
2023-05-31T16:23:49.565Z,102055.19
2023-05-31T16:26:16.065Z,102053.44
2023-05-31T16:28:42.569Z,102020.22
2023-05-31T16:31:14.184Z,102056.81
2023-05-31T16:33:41.592Z,102044.34
2023-05-31T16:36:08.171Z,102055.31
2023-05-31T16:38:34.740Z,102027.72
2023-05-31T16:41:01.778Z,102052.50
2023-05-31T16:43:28.646Z,102058.66
2023-05-31T16:45:55.375Z,102062.66
2023-05-31T16:48:22.042Z,102061.91
2023-05-31T16:50:50.376Z,101980.84
2023-05-31T16:53:18.070Z,102057.66
2023-05-31T16:55:44.696Z,102045.19
2023-05-31T16:58:11.194Z,102009.56
2023-05-31T17:00:37.843Z,102044.69
2023-05-31T17:03:04.850Z,102054.59
2023-05-31T17:05:31.527Z,102042.16
2023-05-31T17:07:58.059Z,102048.38
2023-05-31T17:10:24.718Z,102050.16
2023-05-31T17:12:51.298Z,102043.50
2023-05-31T17:15:17.937Z,102041.91
2023-05-31T17:17:44.731Z,102040.34
2023-05-31T17:20:12.291Z,102046.22
2023-05-31T17:22:39.385Z,102057.19
2023-05-31T17:25:06.470Z,102047.28
2023-05-31T17:27:34.384Z,102046.50
2023-05-31T17:30:01.268Z,102044.28
2023-05-31T17:32:28.017Z,102025.78
2023-05-31T17:34:54.535Z,102036.16
2023-05-31T17:37:21.021Z,102036.16
2023-05-31T17:39:47.438Z,102019.75
2023-05-31T17:42:13.976Z,102031.47
2023-05-31T17:44:40.532Z,102019.09
2023-05-31T17:47:07.475Z,102032.69
2023-05-31T17:49:33.958Z,102019.81
2023-05-31T17:52:00.451Z,102015.88
2023-05-31T17:54:26.868Z,102011.94
2023-05-31T17:56:53.413Z,102009.28
2023-05-31T17:59:22.253Z,102015.69
2023-05-31T18:01:48.849Z,101981.63
2023-05-31T18:04:15.506Z,102016.16
2023-05-31T18:06:42.295Z,102025.22
2023-05-31T18:09:09.298Z,102012.06
2023-05-31T18:11:36.600Z,102016.56
2023-05-31T18:14:03.387Z,101999.59
2023-05-31T18:16:31.658Z,102013.69
2023-05-31T18:18:58.427Z,102013.44
2023-05-31T18:21:25.124Z,102012.63
2023-05-31T18:23:52.043Z,102003.91
2023-05-31T18:26:19.791Z,102006.44
2023-05-31T18:28:48.635Z,102012.91
2023-05-31T18:31:15.435Z,102010.22
2023-05-31T18:33:42.016Z,102010.31
2023-05-31T18:36:08.565Z,102014.88
2023-05-31T18:38:47.463Z,101987.50
2023-05-31T18:41:14.983Z,102002.88
2023-05-31T18:43:42.065Z,101969.25
2023-05-31T18:46:08.577Z,102000.88
2023-05-31T18:48:37.400Z,102004.03
2023-05-31T18:51:05.599Z,101969.63
2023-05-31T18:53:33.617Z,101969.84
2023-05-31T18:56:00.933Z,101996.72
2023-05-31T18:58:27.940Z,101990.88
2023-05-31T19:00:54.665Z,102006.31
2023-05-31T19:03:21.321Z,101984.53
2023-05-31T19:05:48.079Z,101991.03
2023-05-31T19:08:14.580Z,101998.00
2023-05-31T19:10:41.194Z,101990.91
2023-05-31T19:13:09.613Z,101992.00
2023-05-31T19:15:36.104Z,101992.69
2023-05-31T19:18:16.770Z,101963.94
2023-05-31T19:20:48.612Z,101929.72
2023-05-31T19:23:16.915Z,101954.66
2023-05-31T19:25:43.733Z,101991.63
2023-05-31T19:28:10.547Z,101982.00
2023-05-31T19:30:37.821Z,101934.66
2023-05-31T19:33:04.516Z,101955.16
2023-05-31T19:35:31.146Z,101992.38
2023-05-31T19:37:57.772Z,102008.53
2023-05-31T19:40:24.280Z,102012.09
2023-05-31T19:42:51.039Z,102011.56
2023-05-31T19:45:19.190Z,101989.22
2023-05-31T19:47:47.505Z,102010.84
2023-05-31T19:50:14.056Z,102006.06
2023-05-31T19:52:40.688Z,102008.06
2023-05-31T19:55:08.680Z,102016.13
2023-05-31T19:57:35.422Z,101960.81
2023-05-31T20:00:04.163Z,101987.66
2023-05-31T20:02:30.694Z,102010.88
2023-05-31T20:04:57.171Z,102007.34
2023-05-31T20:07:23.767Z,101995.03
2023-05-31T20:09:50.431Z,101990.63
2023-05-31T20:12:17.380Z,102021.75
2023-05-31T20:14:43.908Z,102006.34
2023-05-31T20:17:10.912Z,102005.06
2023-05-31T20:19:37.503Z,102015.53
2023-05-31T20:22:04.205Z,101994.91
2023-05-31T20:24:31.525Z,102026.16
2023-05-31T20:26:57.938Z,102006.22
2023-05-31T20:29:24.454Z,102018.63
2023-05-31T20:31:51.011Z,102018.50
2023-05-31T20:34:17.525Z,102013.44
2023-05-31T20:36:44.071Z,102014.44
2023-05-31T20:39:10.753Z,102006.91
2023-05-31T20:41:37.439Z,101961.69
2023-05-31T20:44:04.148Z,102007.91
2023-05-31T20:46:30.808Z,102004.66
2023-05-31T20:48:57.709Z,101995.59
2023-05-31T20:51:24.158Z,101999.28
2023-05-31T20:53:50.675Z,101992.75
2023-05-31T20:56:17.706Z,101993.91
2023-05-31T20:58:44.660Z,101990.09
2023-05-31T21:01:15.101Z,101983.84
2023-05-31T21:03:41.807Z,101985.69
2023-05-31T21:06:08.480Z,101987.69
2023-05-31T21:08:35.051Z,101996.31
2023-05-31T21:11:01.906Z,101992.91
2023-05-31T21:13:28.350Z,101979.63
2023-05-31T21:15:54.877Z,101989.50
2023-05-31T21:18:21.373Z,101989.50
2023-05-31T21:20:47.846Z,101976.06
2023-05-31T21:23:14.854Z,101995.72
2023-05-31T21:25:41.425Z,101989.78
2023-05-31T21:28:07.904Z,101983.72
2023-05-31T21:30:34.362Z,101969.44
2023-05-31T21:33:01.068Z,101983.88
2023-05-31T21:35:27.635Z,101976.09
2023-05-31T21:37:56.845Z,101982.72
2023-05-31T21:40:24.442Z,101991.91
2023-05-31T21:42:51.400Z,101991.91
2023-05-31T21:45:18.020Z,101956.94
2023-05-31T21:47:44.671Z,101980.44
2023-05-31T21:50:11.369Z,101984.81
2023-05-31T21:52:37.904Z,101967.44
2023-05-31T21:55:06.432Z,101974.25
2023-05-31T21:57:33.011Z,101969.56
2023-05-31T22:00:00.459Z,101975.78
2023-05-31T22:02:26.905Z,101917.63
2023-05-31T22:04:53.798Z,101965.88
2023-05-31T22:07:20.563Z,101978.91
2023-05-31T22:09:47.217Z,101983.69
2023-05-31T22:12:13.640Z,101980.31
2023-05-31T22:14:41.052Z,101955.78
2023-05-31T22:17:08.379Z,101954.94
2023-05-31T22:19:37.991Z,101987.50
2023-05-31T22:22:05.922Z,101978.84
2023-05-31T22:24:32.504Z,101956.19
2023-05-31T22:26:58.962Z,101986.03
2023-05-31T22:29:25.581Z,101987.88
2023-05-31T22:31:52.425Z,101981.13
2023-05-31T22:34:20.060Z,101987.47
2023-05-31T22:36:46.884Z,101962.13
2023-05-31T22:39:13.721Z,101978.13
2023-05-31T22:41:40.321Z,101952.63
2023-05-31T22:44:07.882Z,101987.28
2023-05-31T22:46:35.362Z,101986.03
2023-05-31T22:49:02.060Z,101965.53
2023-05-31T22:51:30.261Z,101974.13
2023-05-31T22:53:56.938Z,101979.34
2023-05-31T22:56:23.415Z,101929.28
2023-05-31T22:58:49.922Z,101918.22
2023-05-31T23:01:16.404Z,101977.06
2023-05-31T23:03:43.190Z,101963.06
2023-05-31T23:06:13.337Z,101946.94
2023-05-31T23:08:44.360Z,101944.97
2023-05-31T23:11:16.173Z,101956.84
2023-05-31T23:13:43.214Z,101991.34
2023-05-31T23:16:10.029Z,101993.03
2023-05-31T23:18:36.625Z,101981.72
2023-05-31T23:21:03.814Z,101984.72
2023-05-31T23:23:30.461Z,101982.88
2023-05-31T23:25:57.069Z,101983.03
2023-05-31T23:28:23.508Z,101981.47
2023-05-31T23:30:50.004Z,101976.22
2023-05-31T23:33:17.415Z,101982.31
2023-05-31T23:35:44.631Z,101995.47
2023-05-31T23:38:11.453Z,101976.09
2023-05-31T23:40:37.946Z,101976.94
2023-05-31T23:43:04.427Z,101974.72
2023-05-31T23:45:31.208Z,101939.88
2023-05-31T23:47:57.866Z,101963.00
2023-05-31T23:50:25.942Z,101973.72
2023-05-31T23:52:52.581Z,101961.28
2023-05-31T23:55:19.070Z,101964.94
2023-05-31T23:57:45.512Z,101965.50
